Terminal Aerodrome Forecast
Issued by NWS

Home | Current Version | Previous Version | Text Only | Print | Product List | Glossary Off
Versions: 1 2 3 4 5 6 7 8 9 10 11 12 13 14 15 16 17 18 19 20 21 22 23 24 25 26 27 28 29

750
FTUS43 KLOT 291503 AAB
TAFDPA
TAF AMD
KDPA 291503Z 2915/3012 07009KT P6SM BKN150 OVC200
     FM291700 06013KT P6SM BKN120
     FM292100 07014G22KT P6SM VCSH BKN060 BKN100
     FM300100 07011KT P6SM SCT030 OVC060
     FM300800 08016G25KT 4SM -SHRA BKN030 OVC050 PROB30 3010/3012
      2SM -TSRA OVC030CB=

USA.gov is the U.S. government's official web portal to all federal, state and local government web resources and services.